sensor_id;sensor_type;location;lat;lon;timestamp;P1;durP1;ratioP1;P2;durP2;ratioP2
41881;SDS011;27562;47.524;12.404;2024-02-26T00:00:31;5.78;;;1.90;;
41881;SDS011;27562;47.524;12.404;2024-02-26T00:02:57;3.90;;;1.77;;
41881;SDS011;27562;47.524;12.404;2024-02-26T00:05:22;3.40;;;1.60;;
41881;SDS011;27562;47.524;12.404;2024-02-26T00:07:48;2.35;;;1.35;;
41881;SDS011;27562;47.524;12.404;2024-02-26T00:10:14;2.47;;;1.42;;
41881;SDS011;27562;47.524;12.404;2024-02-26T00:12:40;3.08;;;1.73;;
41881;SDS011;27562;47.524;12.404;2024-02-26T00:15:06;3.33;;;2.03;;
41881;SDS011;27562;47.524;12.404;2024-02-26T00:17:33;3.75;;;2.03;;
41881;SDS011;27562;47.524;12.404;2024-02-26T00:19:58;4.03;;;2.03;;
41881;SDS011;27562;47.524;12.404;2024-02-26T00:22:25;3.75;;;2.05;;
41881;SDS011;27562;47.524;12.404;2024-02-26T00:24:51;3.65;;;1.95;;
41881;SDS011;27562;47.524;12.404;2024-02-26T00:27:17;5.82;;;2.30;;
41881;SDS011;27562;47.524;12.404;2024-02-26T00:29:42;6.32;;;2.08;;
41881;SDS011;27562;47.524;12.404;2024-02-26T00:32:08;3.22;;;1.83;;
41881;SDS011;27562;47.524;12.404;2024-02-26T00:34:34;2.28;;;1.50;;
41881;SDS011;27562;47.524;12.404;2024-02-26T00:37:00;2.95;;;1.60;;
41881;SDS011;27562;47.524;12.404;2024-02-26T00:39:26;4.20;;;1.85;;
41881;SDS011;27562;47.524;12.404;2024-02-26T00:41:51;3.80;;;1.90;;
41881;SDS011;27562;47.524;12.404;2024-02-26T00:44:17;3.80;;;2.00;;
41881;SDS011;27562;47.524;12.404;2024-02-26T00:46:43;4.50;;;1.90;;
41881;SDS011;27562;47.524;12.404;2024-02-26T00:49:09;3.90;;;2.00;;
41881;SDS011;27562;47.524;12.404;2024-02-26T00:51:35;5.18;;;2.17;;
41881;SDS011;27562;47.524;12.404;2024-02-26T00:54:00;3.67;;;2.03;;
41881;SDS011;27562;47.524;12.404;2024-02-26T00:56:26;5.03;;;1.90;;
41881;SDS011;27562;47.524;12.404;2024-02-26T00:58:52;3.55;;;1.50;;
41881;SDS011;27562;47.524;12.404;2024-02-26T01:01:18;3.17;;;1.73;;
41881;SDS011;27562;47.524;12.404;2024-02-26T01:03:43;4.10;;;1.75;;
41881;SDS011;27562;47.524;12.404;2024-02-26T01:06:09;3.30;;;1.70;;
41881;SDS011;27562;47.524;12.404;2024-02-26T01:08:35;3.83;;;1.65;;
41881;SDS011;27562;47.524;12.404;2024-02-26T01:11:02;3.33;;;1.77;;
41881;SDS011;27562;47.524;12.404;2024-02-26T01:13:28;3.13;;;1.75;;
41881;SDS011;27562;47.524;12.404;2024-02-26T01:15:54;3.67;;;1.83;;
41881;SDS011;27562;47.524;12.404;2024-02-26T01:18:20;3.75;;;2.00;;
41881;SDS011;27562;47.524;12.404;2024-02-26T01:20:45;3.13;;;1.40;;
41881;SDS011;27562;47.524;12.404;2024-02-26T01:23:12;3.40;;;1.60;;
41881;SDS011;27562;47.524;12.404;2024-02-26T01:25:38;2.97;;;1.95;;
41881;SDS011;27562;47.524;12.404;2024-02-26T01:28:04;2.85;;;1.70;;
41881;SDS011;27562;47.524;12.404;2024-02-26T01:30:30;3.00;;;1.70;;
41881;SDS011;27562;47.524;12.404;2024-02-26T01:32:56;2.63;;;1.60;;
41881;SDS011;27562;47.524;12.404;2024-02-26T01:35:22;3.33;;;1.70;;
41881;SDS011;27562;47.524;12.404;2024-02-26T01:37:48;3.83;;;1.80;;
41881;SDS011;27562;47.524;12.404;2024-02-26T01:40:14;2.25;;;1.30;;
41881;SDS011;27562;47.524;12.404;2024-02-26T01:42:44;2.15;;;1.13;;
41881;SDS011;27562;47.524;12.404;2024-02-26T01:45:12;3.13;;;1.67;;
41881;SDS011;27562;47.524;12.404;2024-02-26T01:47:52;2.45;;;1.50;;
41881;SDS011;27562;47.524;12.404;2024-02-26T01:50:19;4.07;;;1.58;;
41881;SDS011;27562;47.524;12.404;2024-02-26T01:52:45;4.25;;;1.88;;
41881;SDS011;27562;47.524;12.404;2024-02-26T01:55:13;4.57;;;1.85;;
41881;SDS011;27562;47.524;12.404;2024-02-26T01:57:42;4.25;;;1.55;;
41881;SDS011;27562;47.524;12.404;2024-02-26T02:00:10;3.08;;;1.85;;
41881;SDS011;27562;47.524;12.404;2024-02-26T02:02:37;7.32;;;3.10;;
41881;SDS011;27562;47.524;12.404;2024-02-26T02:05:05;6.90;;;3.38;;
41881;SDS011;27562;47.524;12.404;2024-02-26T02:07:32;6.60;;;2.65;;
41881;SDS011;27562;47.524;12.404;2024-02-26T02:09:59;3.45;;;1.83;;
41881;SDS011;27562;47.524;12.404;2024-02-26T02:12:25;3.22;;;1.63;;
41881;SDS011;27562;47.524;12.404;2024-02-26T02:14:52;4.18;;;1.55;;
41881;SDS011;27562;47.524;12.404;2024-02-26T02:17:17;2.75;;;1.30;;
41881;SDS011;27562;47.524;12.404;2024-02-26T02:19:44;12.52;;;4.63;;
41881;SDS011;27562;47.524;12.404;2024-02-26T02:22:10;11.88;;;4.32;;
41881;SDS011;27562;47.524;12.404;2024-02-26T02:24:35;9.10;;;4.03;;
41881;SDS011;27562;47.524;12.404;2024-02-26T02:27:01;7.75;;;3.03;;
41881;SDS011;27562;47.524;12.404;2024-02-26T02:29:28;4.30;;;1.65;;
41881;SDS011;27562;47.524;12.404;2024-02-26T02:31:54;3.25;;;1.90;;
41881;SDS011;27562;47.524;12.404;2024-02-26T02:34:21;3.03;;;1.30;;
41881;SDS011;27562;47.524;12.404;2024-02-26T02:36:53;2.80;;;1.50;;
41881;SDS011;27562;47.524;12.404;2024-02-26T02:39:19;4.28;;;1.65;;
41881;SDS011;27562;47.524;12.404;2024-02-26T02:41:45;3.40;;;1.60;;
41881;SDS011;27562;47.524;12.404;2024-02-26T02:44:11;3.20;;;1.35;;
41881;SDS011;27562;47.524;12.404;2024-02-26T02:46:37;3.70;;;1.83;;
41881;SDS011;27562;47.524;12.404;2024-02-26T02:49:03;2.83;;;1.20;;
41881;SDS011;27562;47.524;12.404;2024-02-26T02:51:32;3.42;;;1.45;;
41881;SDS011;27562;47.524;12.404;2024-02-26T02:53:58;3.38;;;1.20;;
41881;SDS011;27562;47.524;12.404;2024-02-26T02:56:23;2.35;;;1.15;;
41881;SDS011;27562;47.524;12.404;2024-02-26T02:58:49;10.95;;;4.95;;
41881;SDS011;27562;47.524;12.404;2024-02-26T03:01:15;8.43;;;4.45;;
41881;SDS011;27562;47.524;12.404;2024-02-26T03:03:40;22.98;;;9.57;;
41881;SDS011;27562;47.524;12.404;2024-02-26T03:06:06;14.35;;;6.85;;
41881;SDS011;27562;47.524;12.404;2024-02-26T03:08:32;13.82;;;7.10;;
41881;SDS011;27562;47.524;12.404;2024-02-26T03:11:00;13.93;;;6.15;;
41881;SDS011;27562;47.524;12.404;2024-02-26T03:13:26;8.00;;;3.55;;
41881;SDS011;27562;47.524;12.404;2024-02-26T03:15:52;9.90;;;3.28;;
41881;SDS011;27562;47.524;12.404;2024-02-26T03:18:17;4.43;;;2.25;;
41881;SDS011;27562;47.524;12.404;2024-02-26T03:20:43;3.45;;;1.73;;
41881;SDS011;27562;47.524;12.404;2024-02-26T03:23:09;2.40;;;1.05;;
41881;SDS011;27562;47.524;12.404;2024-02-26T03:25:37;2.50;;;1.45;;
41881;SDS011;27562;47.524;12.404;2024-02-26T03:28:03;1.92;;;1.20;;
41881;SDS011;27562;47.524;12.404;2024-02-26T03:30:30;2.03;;;1.10;;
41881;SDS011;27562;47.524;12.404;2024-02-26T03:32:56;3.92;;;1.30;;
41881;SDS011;27562;47.524;12.404;2024-02-26T03:35:21;2.58;;;1.20;;
41881;SDS011;27562;47.524;12.404;2024-02-26T03:37:47;2.55;;;1.20;;
41881;SDS011;27562;47.524;12.404;2024-02-26T03:40:15;2.67;;;1.20;;
41881;SDS011;27562;47.524;12.404;2024-02-26T03:42:43;2.10;;;1.15;;
41881;SDS011;27562;47.524;12.404;2024-02-26T03:45:09;2.63;;;1.10;;
41881;SDS011;27562;47.524;12.404;2024-02-26T03:47:37;1.73;;;0.90;;
41881;SDS011;27562;47.524;12.404;2024-02-26T03:50:05;2.00;;;1.17;;
41881;SDS011;27562;47.524;12.404;2024-02-26T03:52:31;2.22;;;1.30;;
41881;SDS011;27562;47.524;12.404;2024-02-26T03:54:58;2.00;;;1.35;;
41881;SDS011;27562;47.524;12.404;2024-02-26T03:57:23;4.35;;;2.10;;
41881;SDS011;27562;47.524;12.404;2024-02-26T03:59:49;4.13;;;2.10;;
41881;SDS011;27562;47.524;12.404;2024-02-26T04:02:16;7.32;;;3.53;;
41881;SDS011;27562;47.524;12.404;2024-02-26T04:04:42;10.50;;;4.70;;
41881;SDS011;27562;47.524;12.404;2024-02-26T04:07:07;6.47;;;2.83;;
41881;SDS011;27562;47.524;12.404;2024-02-26T04:09:33;3.95;;;2.05;;
41881;SDS011;27562;47.524;12.404;2024-02-26T04:11:59;2.80;;;1.60;;
41881;SDS011;27562;47.524;12.404;2024-02-26T04:14:25;2.95;;;1.40;;
41881;SDS011;27562;47.524;12.404;2024-02-26T04:16:51;2.10;;;1.10;;
41881;SDS011;27562;47.524;12.404;2024-02-26T04:19:19;2.72;;;1.25;;
41881;SDS011;27562;47.524;12.404;2024-02-26T04:21:45;2.63;;;1.30;;
41881;SDS011;27562;47.524;12.404;2024-02-26T04:24:11;1.95;;;1.00;;
41881;SDS011;27562;47.524;12.404;2024-02-26T04:26:37;2.33;;;1.10;;
41881;SDS011;27562;47.524;12.404;2024-02-26T04:29:02;1.60;;;1.00;;
41881;SDS011;27562;47.524;12.404;2024-02-26T04:31:28;2.95;;;1.10;;
41881;SDS011;27562;47.524;12.404;2024-02-26T04:33:55;2.47;;;1.17;;
41881;SDS011;27562;47.524;12.404;2024-02-26T04:36:21;1.73;;;0.90;;
41881;SDS011;27562;47.524;12.404;2024-02-26T04:38:47;3.08;;;1.63;;
41881;SDS011;27562;47.524;12.404;2024-02-26T04:41:12;1.92;;;0.82;;
41881;SDS011;27562;47.524;12.404;2024-02-26T04:43:38;2.35;;;1.00;;
41881;SDS011;27562;47.524;12.404;2024-02-26T04:46:09;2.33;;;1.00;;
41881;SDS011;27562;47.524;12.404;2024-02-26T04:48:35;1.92;;;0.90;;
41881;SDS011;27562;47.524;12.404;2024-02-26T04:51:01;1.48;;;0.90;;
41881;SDS011;27562;47.524;12.404;2024-02-26T04:53:28;1.70;;;0.93;;
41881;SDS011;27562;47.524;12.404;2024-02-26T04:55:54;1.20;;;0.80;;
41881;SDS011;27562;47.524;12.404;2024-02-26T04:58:19;2.40;;;1.00;;
41881;SDS011;27562;47.524;12.404;2024-02-26T05:00:45;1.77;;;1.00;;
41881;SDS011;27562;47.524;12.404;2024-02-26T05:03:11;3.40;;;1.42;;
41881;SDS011;27562;47.524;12.404;2024-02-26T05:05:40;2.13;;;1.10;;
41881;SDS011;27562;47.524;12.404;2024-02-26T05:08:09;2.35;;;1.00;;
41881;SDS011;27562;47.524;12.404;2024-02-26T05:10:35;2.22;;;1.25;;
41881;SDS011;27562;47.524;12.404;2024-02-26T05:13:05;2.28;;;1.20;;
41881;SDS011;27562;47.524;12.404;2024-02-26T05:15:30;2.55;;;0.93;;
41881;SDS011;27562;47.524;12.404;2024-02-26T05:17:57;78.53;;;29.73;;
41881;SDS011;27562;47.524;12.404;2024-02-26T05:20:23;57.95;;;22.75;;
41881;SDS011;27562;47.524;12.404;2024-02-26T05:22:49;34.67;;;17.23;;
41881;SDS011;27562;47.524;12.404;2024-02-26T05:25:15;8.52;;;4.00;;
41881;SDS011;27562;47.524;12.404;2024-02-26T05:27:42;5.38;;;2.55;;
41881;SDS011;27562;47.524;12.404;2024-02-26T05:30:08;3.85;;;2.50;;
41881;SDS011;27562;47.524;12.404;2024-02-26T05:32:35;3.78;;;2.60;;
41881;SDS011;27562;47.524;12.404;2024-02-26T05:35:01;7.82;;;4.80;;
41881;SDS011;27562;47.524;12.404;2024-02-26T05:37:28;16.08;;;10.73;;
41881;SDS011;27562;47.524;12.404;2024-02-26T05:39:54;7.50;;;5.18;;
41881;SDS011;27562;47.524;12.404;2024-02-26T05:42:20;6.38;;;3.72;;
41881;SDS011;27562;47.524;12.404;2024-02-26T05:44:46;4.85;;;3.05;;
41881;SDS011;27562;47.524;12.404;2024-02-26T05:47:12;4.18;;;2.65;;
41881;SDS011;27562;47.524;12.404;2024-02-26T05:49:38;3.95;;;2.15;;
41881;SDS011;27562;47.524;12.404;2024-02-26T05:52:04;4.10;;;2.40;;
41881;SDS011;27562;47.524;12.404;2024-02-26T05:54:30;4.35;;;2.72;;
41881;SDS011;27562;47.524;12.404;2024-02-26T05:56:56;4.47;;;1.92;;
41881;SDS011;27562;47.524;12.404;2024-02-26T05:59:22;2.80;;;1.58;;
41881;SDS011;27562;47.524;12.404;2024-02-26T06:01:48;4.32;;;1.77;;
41881;SDS011;27562;47.524;12.404;2024-02-26T06:04:13;3.13;;;1.70;;
41881;SDS011;27562;47.524;12.404;2024-02-26T06:06:39;7.47;;;2.50;;
41881;SDS011;27562;47.524;12.404;2024-02-26T06:09:05;19.92;;;8.55;;
41881;SDS011;27562;47.524;12.404;2024-02-26T06:11:31;26.65;;;10.82;;
41881;SDS011;27562;47.524;12.404;2024-02-26T06:13:56;29.67;;;11.35;;
41881;SDS011;27562;47.524;12.404;2024-02-26T06:16:22;31.55;;;12.82;;
41881;SDS011;27562;47.524;12.404;2024-02-26T06:18:48;32.17;;;13.35;;
41881;SDS011;27562;47.524;12.404;2024-02-26T06:21:13;25.08;;;11.48;;
41881;SDS011;27562;47.524;12.404;2024-02-26T06:23:39;20.20;;;8.90;;
41881;SDS011;27562;47.524;12.404;2024-02-26T06:26:07;12.45;;;6.35;;
41881;SDS011;27562;47.524;12.404;2024-02-26T06:28:33;28.20;;;9.27;;
41881;SDS011;27562;47.524;12.404;2024-02-26T06:31:00;27.55;;;10.68;;
41881;SDS011;27562;47.524;12.404;2024-02-26T06:33:26;27.65;;;10.48;;
41881;SDS011;27562;47.524;12.404;2024-02-26T06:35:52;15.85;;;6.75;;
41881;SDS011;27562;47.524;12.404;2024-02-26T06:38:18;6.70;;;3.30;;
41881;SDS011;27562;47.524;12.404;2024-02-26T06:40:44;5.50;;;2.58;;
41881;SDS011;27562;47.524;12.404;2024-02-26T06:43:10;3.85;;;1.63;;
41881;SDS011;27562;47.524;12.404;2024-02-26T06:45:35;3.10;;;1.63;;
41881;SDS011;27562;47.524;12.404;2024-02-26T06:48:01;3.65;;;1.80;;
41881;SDS011;27562;47.524;12.404;2024-02-26T06:50:27;2.63;;;1.50;;
41881;SDS011;27562;47.524;12.404;2024-02-26T06:52:53;2.88;;;1.27;;
41881;SDS011;27562;47.524;12.404;2024-02-26T06:55:19;1.95;;;1.33;;
41881;SDS011;27562;47.524;12.404;2024-02-26T06:57:44;4.03;;;1.80;;
41881;SDS011;27562;47.524;12.404;2024-02-26T07:00:10;4.10;;;2.00;;
41881;SDS011;27562;47.524;12.404;2024-02-26T07:02:39;3.20;;;1.63;;
41881;SDS011;27562;47.524;12.404;2024-02-26T07:05:05;4.45;;;2.38;;
41881;SDS011;27562;47.524;12.404;2024-02-26T07:07:32;5.35;;;2.60;;
41881;SDS011;27562;47.524;12.404;2024-02-26T07:09:57;4.70;;;2.67;;
41881;SDS011;27562;47.524;12.404;2024-02-26T07:12:23;7.13;;;2.63;;
41881;SDS011;27562;47.524;12.404;2024-02-26T07:14:49;4.13;;;2.20;;
41881;SDS011;27562;47.524;12.404;2024-02-26T07:17:15;4.38;;;1.92;;
41881;SDS011;27562;47.524;12.404;2024-02-26T07:19:41;4.35;;;2.60;;
41881;SDS011;27562;47.524;12.404;2024-02-26T07:22:07;5.95;;;2.92;;
41881;SDS011;27562;47.524;12.404;2024-02-26T07:24:33;5.30;;;2.85;;
41881;SDS011;27562;47.524;12.404;2024-02-26T07:26:59;4.32;;;2.38;;
41881;SDS011;27562;47.524;12.404;2024-02-26T07:29:25;4.43;;;2.35;;
41881;SDS011;27562;47.524;12.404;2024-02-26T07:31:50;4.13;;;2.00;;
41881;SDS011;27562;47.524;12.404;2024-02-26T07:34:16;4.10;;;2.33;;
41881;SDS011;27562;47.524;12.404;2024-02-26T07:36:42;4.22;;;2.05;;
41881;SDS011;27562;47.524;12.404;2024-02-26T07:39:08;8.93;;;3.30;;
41881;SDS011;27562;47.524;12.404;2024-02-26T07:41:33;4.93;;;2.83;;
41881;SDS011;27562;47.524;12.404;2024-02-26T07:43:59;5.93;;;3.40;;
41881;SDS011;27562;47.524;12.404;2024-02-26T07:46:25;8.40;;;4.20;;
41881;SDS011;27562;47.524;12.404;2024-02-26T07:48:50;5.18;;;2.80;;
41881;SDS011;27562;47.524;12.404;2024-02-26T07:51:16;4.68;;;2.63;;
41881;SDS011;27562;47.524;12.404;2024-02-26T07:53:42;6.18;;;2.28;;
41881;SDS011;27562;47.524;12.404;2024-02-26T07:56:08;3.78;;;2.20;;
41881;SDS011;27562;47.524;12.404;2024-02-26T07:58:34;3.88;;;1.92;;
41881;SDS011;27562;47.524;12.404;2024-02-26T08:01:00;3.92;;;2.20;;
41881;SDS011;27562;47.524;12.404;2024-02-26T08:03:26;5.95;;;2.22;;
41881;SDS011;27562;47.524;12.404;2024-02-26T08:05:52;5.50;;;2.70;;
41881;SDS011;27562;47.524;12.404;2024-02-26T08:08:17;4.78;;;2.65;;
41881;SDS011;27562;47.524;12.404;2024-02-26T08:10:43;9.90;;;3.55;;
41881;SDS011;27562;47.524;12.404;2024-02-26T08:13:09;8.60;;;3.50;;
41881;SDS011;27562;47.524;12.404;2024-02-26T08:15:35;7.75;;;3.22;;
41881;SDS011;27562;47.524;12.404;2024-02-26T08:18:02;6.82;;;2.90;;
41881;SDS011;27562;47.524;12.404;2024-02-26T08:20:31;8.45;;;3.70;;
41881;SDS011;27562;47.524;12.404;2024-02-26T08:22:57;6.90;;;3.80;;
41881;SDS011;27562;47.524;12.404;2024-02-26T08:25:23;10.57;;;5.20;;
41881;SDS011;27562;47.524;12.404;2024-02-26T08:27:49;10.25;;;5.40;;
41881;SDS011;27562;47.524;12.404;2024-02-26T08:30:15;10.07;;;4.70;;
41881;SDS011;27562;47.524;12.404;2024-02-26T08:32:45;12.38;;;4.68;;
41881;SDS011;27562;47.524;12.404;2024-02-26T08:35:12;12.13;;;4.95;;
41881;SDS011;27562;47.524;12.404;2024-02-26T08:37:38;7.18;;;4.00;;
41881;SDS011;27562;47.524;12.404;2024-02-26T08:40:04;8.32;;;3.70;;
41881;SDS011;27562;47.524;12.404;2024-02-26T08:42:31;8.40;;;3.72;;
41881;SDS011;27562;47.524;12.404;2024-02-26T08:44:56;6.00;;;3.47;;
41881;SDS011;27562;47.524;12.404;2024-02-26T08:47:25;5.50;;;3.35;;
41881;SDS011;27562;47.524;12.404;2024-02-26T08:49:51;8.55;;;3.58;;
41881;SDS011;27562;47.524;12.404;2024-02-26T08:52:16;6.50;;;2.97;;
41881;SDS011;27562;47.524;12.404;2024-02-26T08:54:42;4.88;;;2.58;;
41881;SDS011;27562;47.524;12.404;2024-02-26T08:57:08;5.75;;;2.88;;
41881;SDS011;27562;47.524;12.404;2024-02-26T08:59:34;4.47;;;2.50;;
41881;SDS011;27562;47.524;12.404;2024-02-26T09:02:00;5.03;;;2.90;;
41881;SDS011;27562;47.524;12.404;2024-02-26T09:04:26;5.78;;;2.88;;
41881;SDS011;27562;47.524;12.404;2024-02-26T09:06:52;9.40;;;5.18;;
41881;SDS011;27562;47.524;12.404;2024-02-26T09:09:18;4.80;;;3.08;;
41881;SDS011;27562;47.524;12.404;2024-02-26T09:11:45;8.73;;;3.10;;
41881;SDS011;27562;47.524;12.404;2024-02-26T09:14:11;8.98;;;3.30;;
41881;SDS011;27562;47.524;12.404;2024-02-26T09:16:37;7.30;;;3.22;;
41881;SDS011;27562;47.524;12.404;2024-02-26T09:19:02;6.20;;;3.20;;
41881;SDS011;27562;47.524;12.404;2024-02-26T09:21:28;12.43;;;4.20;;
41881;SDS011;27562;47.524;12.404;2024-02-26T09:23:54;5.38;;;2.92;;
41881;SDS011;27562;47.524;12.404;2024-02-26T09:26:20;11.18;;;4.25;;
41881;SDS011;27562;47.524;12.404;2024-02-26T09:28:45;15.05;;;4.13;;
41881;SDS011;27562;47.524;12.404;2024-02-26T09:31:11;8.60;;;4.57;;
41881;SDS011;27562;47.524;12.404;2024-02-26T09:33:37;6.40;;;3.75;;
41881;SDS011;27562;47.524;12.404;2024-02-26T09:36:04;5.93;;;3.55;;
41881;SDS011;27562;47.524;12.404;2024-02-26T09:38:31;7.00;;;3.25;;
41881;SDS011;27562;47.524;12.404;2024-02-26T09:41:01;6.00;;;3.10;;
41881;SDS011;27562;47.524;12.404;2024-02-26T09:43:27;4.95;;;3.05;;
41881;SDS011;27562;47.524;12.404;2024-02-26T09:46:04;5.25;;;2.83;;
41881;SDS011;27562;47.524;12.404;2024-02-26T09:48:31;8.02;;;3.53;;
41881;SDS011;27562;47.524;12.404;2024-02-26T09:50:59;7.82;;;3.08;;
41881;SDS011;27562;47.524;12.404;2024-02-26T09:53:26;8.05;;;3.10;;
41881;SDS011;27562;47.524;12.404;2024-02-26T09:55:56;6.28;;;3.58;;
41881;SDS011;27562;47.524;12.404;2024-02-26T09:58:22;5.22;;;3.17;;
41881;SDS011;27562;47.524;12.404;2024-02-26T10:00:51;8.52;;;4.10;;
41881;SDS011;27562;47.524;12.404;2024-02-26T10:03:21;5.22;;;2.88;;
41881;SDS011;27562;47.524;12.404;2024-02-26T10:05:48;5.28;;;2.33;;
41881;SDS011;27562;47.524;12.404;2024-02-26T10:08:15;5.88;;;2.60;;
41881;SDS011;27562;47.524;12.404;2024-02-26T10:10:43;3.47;;;2.10;;
41881;SDS011;27562;47.524;12.404;2024-02-26T10:13:09;3.60;;;2.10;;
41881;SDS011;27562;47.524;12.404;2024-02-26T10:15:37;5.13;;;2.85;;
41881;SDS011;27562;47.524;12.404;2024-02-26T10:18:05;6.28;;;2.13;;
41881;SDS011;27562;47.524;12.404;2024-02-26T10:20:31;3.70;;;2.40;;
41881;SDS011;27562;47.524;12.404;2024-02-26T10:22:58;8.13;;;3.40;;
41881;SDS011;27562;47.524;12.404;2024-02-26T10:25:27;5.05;;;2.40;;
41881;SDS011;27562;47.524;12.404;2024-02-26T10:27:53;5.68;;;2.58;;
41881;SDS011;27562;47.524;12.404;2024-02-26T10:30:19;3.95;;;2.63;;
41881;SDS011;27562;47.524;12.404;2024-02-26T10:32:46;4.05;;;2.45;;
41881;SDS011;27562;47.524;12.404;2024-02-26T10:35:14;5.97;;;2.67;;
41881;SDS011;27562;47.524;12.404;2024-02-26T10:37:41;4.15;;;2.72;;
41881;SDS011;27562;47.524;12.404;2024-02-26T10:40:13;5.22;;;3.00;;
41881;SDS011;27562;47.524;12.404;2024-02-26T10:42:39;6.00;;;2.70;;
41881;SDS011;27562;47.524;12.404;2024-02-26T10:45:06;10.10;;;3.65;;
41881;SDS011;27562;47.524;12.404;2024-02-26T10:47:34;5.60;;;3.30;;
41881;SDS011;27562;47.524;12.404;2024-02-26T10:50:03;7.25;;;3.50;;
41881;SDS011;27562;47.524;12.404;2024-02-26T10:52:34;10.23;;;2.90;;
41881;SDS011;27562;47.524;12.404;2024-02-26T10:55:01;5.15;;;3.10;;
41881;SDS011;27562;47.524;12.404;2024-02-26T10:57:46;6.15;;;3.40;;
41881;SDS011;27562;47.524;12.404;2024-02-26T11:00:16;5.20;;;3.60;;
41881;SDS011;27562;47.524;12.404;2024-02-26T11:02:42;6.93;;;3.65;;
41881;SDS011;27562;47.524;12.404;2024-02-26T11:05:11;9.80;;;4.15;;
41881;SDS011;27562;47.524;12.404;2024-02-26T11:07:38;9.15;;;4.50;;
41881;SDS011;27562;47.524;12.404;2024-02-26T11:10:06;8.10;;;4.25;;
41881;SDS011;27562;47.524;12.404;2024-02-26T11:12:32;10.90;;;6.55;;
41881;SDS011;27562;47.524;12.404;2024-02-26T11:15:02;10.50;;;7.20;;
41881;SDS011;27562;47.524;12.404;2024-02-26T11:17:28;12.30;;;6.85;;
41881;SDS011;27562;47.524;12.404;2024-02-26T11:19:56;13.95;;;6.20;;
41881;SDS011;27562;47.524;12.404;2024-02-26T11:22:23;9.85;;;6.38;;
41881;SDS011;27562;47.524;12.404;2024-02-26T11:24:51;9.93;;;5.93;;
41881;SDS011;27562;47.524;12.404;2024-02-26T11:27:27;9.02;;;5.72;;
41881;SDS011;27562;47.524;12.404;2024-02-26T11:29:58;11.27;;;6.05;;
41881;SDS011;27562;47.524;12.404;2024-02-26T11:32:26;11.43;;;5.90;;
41881;SDS011;27562;47.524;12.404;2024-02-26T11:34:55;11.57;;;5.68;;
41881;SDS011;27562;47.524;12.404;2024-02-26T11:37:22;9.65;;;5.72;;
41881;SDS011;27562;47.524;12.404;2024-02-26T11:39:48;7.43;;;4.90;;
41881;SDS011;27562;47.524;12.404;2024-02-26T11:42:16;7.07;;;4.60;;
41881;SDS011;27562;47.524;12.404;2024-02-26T11:44:43;5.45;;;3.50;;
41881;SDS011;27562;47.524;12.404;2024-02-26T11:47:13;4.28;;;1.88;;
41881;SDS011;27562;47.524;12.404;2024-02-26T11:49:43;5.38;;;1.80;;
41881;SDS011;27562;47.524;12.404;2024-02-26T11:52:09;7.13;;;2.22;;
41881;SDS011;27562;47.524;12.404;2024-02-26T11:57:21;6.30;;;4.20;;
41881;SDS011;27562;47.524;12.404;2024-02-26T11:59:47;5.43;;;2.10;;
41881;SDS011;27562;47.524;12.404;2024-02-26T12:02:37;4.45;;;1.80;;
41881;SDS011;27562;47.524;12.404;2024-02-26T12:05:20;5.22;;;2.30;;
41881;SDS011;27562;47.524;12.404;2024-02-26T12:07:55;6.22;;;2.60;;
41881;SDS011;27562;47.524;12.404;2024-02-26T12:10:32;5.32;;;2.33;;
41881;SDS011;27562;47.524;12.404;2024-02-26T12:13:15;8.32;;;3.25;;
41881;SDS011;27562;47.524;12.404;2024-02-26T12:15:43;6.20;;;2.05;;
41881;SDS011;27562;47.524;12.404;2024-02-26T12:18:15;4.50;;;1.85;;
41881;SDS011;27562;47.524;12.404;2024-02-26T12:20:42;2.08;;;1.33;;
41881;SDS011;27562;47.524;12.404;2024-02-26T12:23:17;5.15;;;1.05;;
41881;SDS011;27562;47.524;12.404;2024-02-26T12:25:43;4.13;;;1.30;;
41881;SDS011;27562;47.524;12.404;2024-02-26T12:28:09;4.75;;;1.73;;
41881;SDS011;27562;47.524;12.404;2024-02-26T12:30:35;5.45;;;1.55;;
41881;SDS011;27562;47.524;12.404;2024-02-26T12:33:00;2.50;;;1.50;;
41881;SDS011;27562;47.524;12.404;2024-02-26T12:35:27;5.35;;;1.55;;
41881;SDS011;27562;47.524;12.404;2024-02-26T12:37:54;4.50;;;1.60;;
41881;SDS011;27562;47.524;12.404;2024-02-26T12:40:19;5.40;;;1.60;;
41881;SDS011;27562;47.524;12.404;2024-02-26T12:42:46;3.55;;;1.35;;
41881;SDS011;27562;47.524;12.404;2024-02-26T12:45:12;3.22;;;1.42;;
41881;SDS011;27562;47.524;12.404;2024-02-26T12:47:39;3.75;;;1.40;;
41881;SDS011;27562;47.524;12.404;2024-02-26T12:50:06;3.25;;;1.70;;
41881;SDS011;27562;47.524;12.404;2024-02-26T12:52:33;3.08;;;1.40;;
41881;SDS011;27562;47.524;12.404;2024-02-26T12:55:01;4.47;;;1.60;;
41881;SDS011;27562;47.524;12.404;2024-02-26T12:57:33;2.97;;;1.48;;
41881;SDS011;27562;47.524;12.404;2024-02-26T13:00:00;4.53;;;1.60;;
41881;SDS011;27562;47.524;12.404;2024-02-26T13:02:29;4.00;;;1.48;;
41881;SDS011;27562;47.524;12.404;2024-02-26T13:04:55;5.57;;;1.30;;
41881;SDS011;27562;47.524;12.404;2024-02-26T13:07:22;2.28;;;1.00;;
41881;SDS011;27562;47.524;12.404;2024-02-26T13:09:47;4.10;;;1.73;;
41881;SDS011;27562;47.524;12.404;2024-02-26T13:12:13;2.08;;;1.00;;
41881;SDS011;27562;47.524;12.404;2024-02-26T13:14:39;3.35;;;1.00;;
41881;SDS011;27562;47.524;12.404;2024-02-26T13:17:05;6.25;;;1.70;;
41881;SDS011;27562;47.524;12.404;2024-02-26T13:19:31;3.53;;;1.00;;
41881;SDS011;27562;47.524;12.404;2024-02-26T13:22:03;2.88;;;0.90;;
41881;SDS011;27562;47.524;12.404;2024-02-26T13:24:31;4.80;;;1.90;;
41881;SDS011;27562;47.524;12.404;2024-02-26T13:26:57;2.50;;;1.58;;
41881;SDS011;27562;47.524;12.404;2024-02-26T13:29:23;3.55;;;1.90;;
41881;SDS011;27562;47.524;12.404;2024-02-26T13:31:57;3.88;;;1.27;;
41881;SDS011;27562;47.524;12.404;2024-02-26T13:34:26;5.28;;;1.40;;
41881;SDS011;27562;47.524;12.404;2024-02-26T13:36:56;1.55;;;0.85;;
41881;SDS011;27562;47.524;12.404;2024-02-26T13:39:22;6.60;;;1.27;;
41881;SDS011;27562;47.524;12.404;2024-02-26T13:41:49;7.00;;;1.13;;
41881;SDS011;27562;47.524;12.404;2024-02-26T13:44:15;5.03;;;1.40;;
41881;SDS011;27562;47.524;12.404;2024-02-26T13:46:41;3.80;;;1.38;;
41881;SDS011;27562;47.524;12.404;2024-02-26T13:49:08;3.05;;;1.02;;
41881;SDS011;27562;47.524;12.404;2024-02-26T13:51:34;2.97;;;1.35;;
41881;SDS011;27562;47.524;12.404;2024-02-26T13:54:01;3.63;;;1.25;;
41881;SDS011;27562;47.524;12.404;2024-02-26T13:56:27;1.75;;;0.73;;
41881;SDS011;27562;47.524;12.404;2024-02-26T13:58:53;5.53;;;0.95;;
41881;SDS011;27562;47.524;12.404;2024-02-26T14:01:18;5.40;;;1.20;;
41881;SDS011;27562;47.524;12.404;2024-02-26T14:03:44;2.75;;;0.70;;
41881;SDS011;27562;47.524;12.404;2024-02-26T14:06:10;2.00;;;0.80;;
41881;SDS011;27562;47.524;12.404;2024-02-26T14:08:36;2.53;;;0.70;;
41881;SDS011;27562;47.524;12.404;2024-02-26T14:11:02;3.75;;;0.90;;
41881;SDS011;27562;47.524;12.404;2024-02-26T14:13:28;1.98;;;0.80;;
41881;SDS011;27562;47.524;12.404;2024-02-26T14:15:54;3.92;;;1.17;;
41881;SDS011;27562;47.524;12.404;2024-02-26T14:18:19;7.35;;;1.10;;
41881;SDS011;27562;47.524;12.404;2024-02-26T14:20:45;5.35;;;0.82;;
41881;SDS011;27562;47.524;12.404;2024-02-26T14:23:10;3.88;;;1.20;;
41881;SDS011;27562;47.524;12.404;2024-02-26T14:25:36;2.88;;;0.80;;
41881;SDS011;27562;47.524;12.404;2024-02-26T14:28:02;4.38;;;0.95;;
41881;SDS011;27562;47.524;12.404;2024-02-26T14:30:28;1.98;;;1.15;;
41881;SDS011;27562;47.524;12.404;2024-02-26T14:32:54;3.40;;;0.70;;